Little Valley, Nevada Weather observations

Data are for 10 minute period ending at time listed.
 Day   Time    Ave.   Ave.  Ave.  Vector   Max.   Total    Solar   
  of    of     Air    Rel.  Wind   Wind    Wind  Precip.   Rad.    
Year   Day     Temp.  Hum.  Speed  Dir.    Gust                    
2017   (PST)    F      %     mph   deg.    mph     in.     W/m2    
------------------------------------------------------------------- 
  23    1:00   23.0    92    8.0   257     28.0    8.40       0  
  23    2:00   23.0    93    8.0   211     20.0    8.40       0  
  23    3:00   23.0    91    6.0   243     22.0    8.40       0  
  23    4:00   22.0    91    8.0   257     22.0    8.40       0  
  23    5:00   22.0    91    6.0   221     17.0    8.40       0  
  23    6:00   22.0    88    9.0   254     18.0    8.40       0  
  23    7:00   22.0    85    8.0   236     18.0    8.40       0  
  23    8:00   21.0    86    7.0   254     16.0    8.40       1  
  23    9:00   23.0    86    9.0   259     20.0    8.40      54  
  23   10:00   24.0    86    6.0   249     16.0    8.40      92  
  23   11:00   25.0    86    6.0   254     15.0    8.40     155  
  23   12:00   25.0    83   10.0   242     21.0    8.40     222  
  23   13:00   25.0    84   10.0   247     29.0    8.40     225  
  23   14:00   26.0    80   10.0   250     24.0    8.40     352  
  23   15:00   23.0    83    6.0   237     20.0    8.40     150  
  23   16:00   23.0    84    6.0   209     19.0    8.40     106  
  23   17:00   23.0    84    5.0   219     20.0    8.40      70  
  23   18:00   21.0    86    6.0   162     21.0    8.40       7  
  23   19:00   21.0    85    5.0   252     16.0    8.40       0  
  23   20:00   20.0    83    6.0   284     13.0    8.40       0  
  23   21:00   20.0    83    5.0   240     14.0    8.40       0  
  23   22:00   20.0    85    6.0   251     18.0    8.40       0  
  23   23:00   19.0    83    2.0   157     13.0    8.40       0  
  24    0:00   16.0    86    2.0    17      9.0    8.40       0  

Return to Little Valley, Nevada graphs page.


Western Regional Climate Center,wrcc@dri.edu